sensor_id;sensor_type;location;lat;lon;timestamp;pressure;altitude;pressure_sealevel;temperature;humidity
62293;BME280;48292;47.724;18.992;2022-07-22T03:38:43;97551.08;;;19.83;42.12
62293;BME280;48292;47.724;18.992;2022-07-22T03:43:45;97545.81;;;20.19;41.22
62293;BME280;48292;47.724;18.992;2022-07-22T03:48:46;97545.81;;;20.19;41.22
62293;BME280;48292;47.724;18.992;2022-07-22T03:53:48;97546.2;;;20.08;43.47
62293;BME280;48292;47.724;18.992;2022-07-22T03:58:50;97546.2;;;20.08;43.47
62293;BME280;48292;47.724;18.992;2022-07-22T04:03:52;97550.25;;;20.11;44.81
62293;BME280;48292;47.724;18.992;2022-07-22T04:08:56;97550.25;;;20.11;44.81
62293;BME280;48292;47.724;18.992;2022-07-22T04:14:01;97553.55;;;20.18;44.83
62293;BME280;48292;47.724;18.992;2022-07-22T04:19:04;97553.55;;;20.18;44.83
62293;BME280;48292;47.724;18.992;2022-07-22T04:24:06;97546.7;;;21.56;42.99
62293;BME280;48292;47.724;18.992;2022-07-22T04:29:08;97546.7;;;21.56;42.99
62293;BME280;48292;47.724;18.992;2022-07-22T04:34:10;97539.56;;;22.11;41.67
62293;BME280;48292;47.724;18.992;2022-07-22T04:39:12;97539.56;;;22.11;41.67
62293;BME280;48292;47.724;18.992;2022-07-22T04:44:14;97546.13;;;22.63;41.46
62293;BME280;48292;47.724;18.992;2022-07-22T04:49:16;97546.13;;;22.63;41.46
62293;BME280;48292;47.724;18.992;2022-07-22T04:54:17;97541.2;;;22.93;39.67
62293;BME280;48292;47.724;18.992;2022-07-22T04:59:25;97543.95;;;23.27;38.38
62293;BME280;48292;47.724;18.992;2022-07-22T05:04:26;97543.95;;;23.27;38.38
62293;BME280;48292;47.724;18.992;2022-07-22T05:09:29;97552.64;;;23.68;37.83
62293;BME280;48292;47.724;18.992;2022-07-22T05:14:33;97552.64;;;23.68;37.83
62293;BME280;48292;47.724;18.992;2022-07-22T05:19:36;97557.84;;;24.32;37.0
62293;BME280;48292;47.724;18.992;2022-07-22T05:24:38;97557.84;;;24.32;37.0
62293;BME280;48292;47.724;18.992;2022-07-22T05:29:40;97556.42;;;24.85;36.88
62293;BME280;48292;47.724;18.992;2022-07-22T05:34:42;97556.42;;;24.85;36.88
62293;BME280;48292;47.724;18.992;2022-07-22T05:39:44;97558.86;;;25.41;33.79
62293;BME280;48292;47.724;18.992;2022-07-22T05:44:47;97558.86;;;25.41;33.79
62293;BME280;48292;47.724;18.992;2022-07-22T05:49:49;97570.34;;;25.78;35.15
62293;BME280;48292;47.724;18.992;2022-07-22T05:54:50;97570.34;;;25.78;35.15
62293;BME280;48292;47.724;18.992;2022-07-22T05:59:52;97570.95;;;25.94;34.5
62293;BME280;48292;47.724;18.992;2022-07-22T06:04:54;97570.95;;;25.94;34.5
62293;BME280;48292;47.724;18.992;2022-07-22T06:09:56;97574.52;;;26.16;32.39
62293;BME280;48292;47.724;18.992;2022-07-22T06:14:58;97568.09;;;26.55;33.62
62293;BME280;48292;47.724;18.992;2022-07-22T06:20:00;97568.09;;;26.55;33.62
62293;BME280;48292;47.724;18.992;2022-07-22T06:25:02;97573.03;;;26.88;32.17
62293;BME280;48292;47.724;18.992;2022-07-22T06:30:08;97573.03;;;26.88;32.17
62293;BME280;48292;47.724;18.992;2022-07-22T06:35:10;97579.64;;;27.28;29.53
62293;BME280;48292;47.724;18.992;2022-07-22T06:40:12;97579.64;;;27.28;29.53
62293;BME280;48292;47.724;18.992;2022-07-22T06:45:15;97577.5;;;27.81;31.07
62293;BME280;48292;47.724;18.992;2022-07-22T06:50:17;97577.5;;;27.81;31.07
62293;BME280;48292;47.724;18.992;2022-07-22T06:55:19;97581.34;;;28.31;26.71
62293;BME280;48292;47.724;18.992;2022-07-22T07:00:21;97581.34;;;28.31;26.71
62293;BME280;48292;47.724;18.992;2022-07-22T07:05:23;97572.13;;;28.36;28.42
62293;BME280;48292;47.724;18.992;2022-07-22T07:10:30;97572.13;;;28.36;28.42
62293;BME280;48292;47.724;18.992;2022-07-22T07:15:33;97570.7;;;28.11;28.05
62293;BME280;48292;47.724;18.992;2022-07-22T07:20:35;97570.7;;;28.11;28.05
62293;BME280;48292;47.724;18.992;2022-07-22T07:25:37;97559.83;;;29.01;25.53
62293;BME280;48292;47.724;18.992;2022-07-22T07:30:38;97562.82;;;31.31;21.68
62293;BME280;48292;47.724;18.992;2022-07-22T07:35:41;97562.82;;;31.31;21.68
62293;BME280;48292;47.724;18.992;2022-07-22T07:40:44;97557.14;;;33.87;22.98
62293;BME280;48292;47.724;18.992;2022-07-22T07:45:46;97557.14;;;33.87;22.98
62293;BME280;48292;47.724;18.992;2022-07-22T07:50:48;97566.7;;;31.23;20.76
62293;BME280;48292;47.724;18.992;2022-07-22T07:55:51;97566.7;;;31.23;20.76
62293;BME280;48292;47.724;18.992;2022-07-22T08:00:53;97566.16;;;31.45;21.68
62293;BME280;48292;47.724;18.992;2022-07-22T08:05:59;97566.16;;;31.45;21.68
62293;BME280;48292;47.724;18.992;2022-07-22T08:11:02;97556.28;;;31.66;21.41
62293;BME280;48292;47.724;18.992;2022-07-22T08:16:05;97556.28;;;31.66;21.41
62293;BME280;48292;47.724;18.992;2022-07-22T08:21:11;97557.22;;;32.6;19.85
62293;BME280;48292;47.724;18.992;2022-07-22T08:26:14;97557.22;;;32.6;19.85
62293;BME280;48292;47.724;18.992;2022-07-22T08:31:17;97564.11;;;32.14;19.41
62293;BME280;48292;47.724;18.992;2022-07-22T08:36:19;97564.11;;;32.14;19.41
62293;BME280;48292;47.724;18.992;2022-07-22T08:41:22;97563.94;;;32.97;19.71
62293;BME280;48292;47.724;18.992;2022-07-22T08:46:24;97560.02;;;34.55;18.79
62293;BME280;48292;47.724;18.992;2022-07-22T08:51:27;97560.02;;;34.55;18.79
62293;BME280;48292;47.724;18.992;2022-07-22T08:56:29;97552.69;;;35.4;18.23
62293;BME280;48292;47.724;18.992;2022-07-22T09:01:31;97552.69;;;35.4;18.23
62293;BME280;48292;47.724;18.992;2022-07-22T09:06:34;97556.81;;;34.88;19.31
62293;BME280;48292;47.724;18.992;2022-07-22T09:11:36;97556.81;;;34.88;19.31
62293;BME280;48292;47.724;18.992;2022-07-22T09:16:39;97559.41;;;34.74;20.71
62293;BME280;48292;47.724;18.992;2022-07-22T09:21:44;97559.41;;;34.74;20.71
62293;BME280;48292;47.724;18.992;2022-07-22T09:26:47;97549.05;;;36.16;19.39
62293;BME280;48292;47.724;18.992;2022-07-22T09:31:51;97549.05;;;36.16;19.39
62293;BME280;48292;47.724;18.992;2022-07-22T09:36:58;97547.08;;;35.74;21.3
62293;BME280;48292;47.724;18.992;2022-07-22T09:42:02;97547.08;;;35.74;21.3
62293;BME280;48292;47.724;18.992;2022-07-22T09:47:05;97545.09;;;36.59;18.93
62293;BME280;48292;47.724;18.992;2022-07-22T09:52:07;97545.09;;;36.59;18.93
62293;BME280;48292;47.724;18.992;2022-07-22T09:57:09;97530.7;;;37.06;18.87
62293;BME280;48292;47.724;18.992;2022-07-22T10:02:12;97528.71;;;36.53;18.92
62293;BME280;48292;47.724;18.992;2022-07-22T10:07:16;97528.71;;;36.53;18.92
62293;BME280;48292;47.724;18.992;2022-07-22T10:12:19;97521.28;;;36.2;19.29
62293;BME280;48292;47.724;18.992;2022-07-22T10:17:22;97521.28;;;36.2;19.29
62293;BME280;48292;47.724;18.992;2022-07-22T10:32:41;97499.66;;;37.4;20.19
62293;BME280;48292;47.724;18.992;2022-07-22T10:37:43;97499.66;;;37.4;20.19
62293;BME280;48292;47.724;18.992;2022-07-22T10:47:57;97497.42;;;36.76;21.42
62293;BME280;48292;47.724;18.992;2022-07-22T10:52:59;97497.28;;;35.92;21.6
62293;BME280;48292;47.724;18.992;2022-07-22T11:03:07;97491.37;;;35.68;23.66
62293;BME280;48292;47.724;18.992;2022-07-22T11:08:10;97491.37;;;35.68;23.66
62293;BME280;48292;47.724;18.992;2022-07-22T11:13:12;97486.33;;;35.62;23.75
62293;BME280;48292;47.724;18.992;2022-07-22T11:18:15;97475.91;;;36.74;22.85
62293;BME280;48292;47.724;18.992;2022-07-22T11:23:17;97475.91;;;36.74;22.85
62293;BME280;48292;47.724;18.992;2022-07-22T11:28:22;97478.88;;;36.14;22.76
62293;BME280;48292;47.724;18.992;2022-07-22T11:33:24;97478.88;;;36.14;22.76
62293;BME280;48292;47.724;18.992;2022-07-22T11:43:37;97475.3;;;34.11;26.14
62293;BME280;48292;47.724;18.992;2022-07-22T11:48:39;97462.86;;;34.33;26.28
62293;BME280;48292;47.724;18.992;2022-07-22T11:53:41;97462.86;;;34.33;26.28
62293;BME280;48292;47.724;18.992;2022-07-22T11:58:44;97460.52;;;33.72;26.6
62293;BME280;48292;47.724;18.992;2022-07-22T12:03:48;97460.52;;;33.72;26.6
62293;BME280;48292;47.724;18.992;2022-07-22T12:08:51;97455.38;;;34.21;26.23
62293;BME280;48292;47.724;18.992;2022-07-22T12:13:54;97455.38;;;34.21;26.23
62293;BME280;48292;47.724;18.992;2022-07-22T12:18:58;97447.05;;;33.7;26.95
62293;BME280;48292;47.724;18.992;2022-07-22T12:24:00;97435.14;;;35.07;25.91
62293;BME280;48292;47.724;18.992;2022-07-22T12:34:13;97422.31;;;35.99;22.96
62293;BME280;48292;47.724;18.992;2022-07-22T12:39:16;97422.31;;;35.99;22.96
62293;BME280;48292;47.724;18.992;2022-07-22T12:44:20;97407.34;;;34.74;23.11
62293;BME280;48292;47.724;18.992;2022-07-22T12:49:23;97407.34;;;34.74;23.11
62293;BME280;48292;47.724;18.992;2022-07-22T12:54:25;97407.19;;;35.53;22.63
62293;BME280;48292;47.724;18.992;2022-07-22T12:59:28;97407.19;;;35.53;22.63
62293;BME280;48292;47.724;18.992;2022-07-22T13:04:30;97394.69;;;37.44;20.66
62293;BME280;48292;47.724;18.992;2022-07-22T13:09:32;97394.69;;;37.44;20.66
62293;BME280;48292;47.724;18.992;2022-07-22T13:14:34;97383.34;;;38.88;19.45
62293;BME280;48292;47.724;18.992;2022-07-22T13:19:36;97383.34;;;38.88;19.45
62293;BME280;48292;47.724;18.992;2022-07-22T13:24:38;97384.0;;;36.38;21.06
62293;BME280;48292;47.724;18.992;2022-07-22T13:29:40;97384.0;;;36.38;21.06
62293;BME280;48292;47.724;18.992;2022-07-22T13:34:44;97373.39;;;38.37;19.22
62293;BME280;48292;47.724;18.992;2022-07-22T13:39:46;97371.41;;;37.57;19.75
62293;BME280;48292;47.724;18.992;2022-07-22T13:44:49;97371.41;;;37.57;19.75
62293;BME280;48292;47.724;18.992;2022-07-22T13:49:51;97359.98;;;36.3;20.13
62293;BME280;48292;47.724;18.992;2022-07-22T13:54:53;97359.98;;;36.3;20.13
62293;BME280;48292;47.724;18.992;2022-07-22T13:59:55;97356.91;;;38.39;18.92
62293;BME280;48292;47.724;18.992;2022-07-22T14:04:57;97356.91;;;38.39;18.92
62293;BME280;48292;47.724;18.992;2022-07-22T14:09:59;97354.26;;;35.16;23.47
62293;BME280;48292;47.724;18.992;2022-07-22T14:15:01;97354.26;;;35.16;23.47
62293;BME280;48292;47.724;18.992;2022-07-22T14:20:07;97338.07;;;38.69;19.51
62293;BME280;48292;47.724;18.992;2022-07-22T14:25:09;97338.07;;;38.69;19.51
62293;BME280;48292;47.724;18.992;2022-07-22T14:30:12;97328.99;;;40.15;18.48
62293;BME280;48292;47.724;18.992;2022-07-22T14:35:14;97328.99;;;40.15;18.48
62293;BME280;48292;47.724;18.992;2022-07-22T14:40:16;97332.22;;;40.26;16.68
62293;BME280;48292;47.724;18.992;2022-07-22T14:45:18;97332.22;;;40.26;16.68
62293;BME280;48292;47.724;18.992;2022-07-22T14:50:20;97317.28;;;41.05;15.88
62293;BME280;48292;47.724;18.992;2022-07-22T14:55:22;97325.16;;;38.53;18.22
62293;BME280;48292;47.724;18.992;2022-07-22T15:00:28;97325.16;;;38.53;18.22
62293;BME280;48292;47.724;18.992;2022-07-22T15:05:30;97313.66;;;38.47;17.9
62293;BME280;48292;47.724;18.992;2022-07-22T15:10:32;97313.66;;;38.47;17.9
62293;BME280;48292;47.724;18.992;2022-07-22T15:15:34;97324.69;;;37.47;19.22
62293;BME280;48292;47.724;18.992;2022-07-22T15:20:36;97324.69;;;37.47;19.22
62293;BME280;48292;47.724;18.992;2022-07-22T15:25:37;97315.35;;;38.44;18.45
62293;BME280;48292;47.724;18.992;2022-07-22T15:30:40;97315.35;;;38.44;18.45
62293;BME280;48292;47.724;18.992;2022-07-22T15:35:42;97315.84;;;38.06;19.07
62293;BME280;48292;47.724;18.992;2022-07-22T15:40:43;97315.84;;;38.06;19.07
62293;BME280;48292;47.724;18.992;2022-07-22T15:45:45;97320.44;;;37.92;18.57
62293;BME280;48292;47.724;18.992;2022-07-22T15:50:48;97320.44;;;37.92;18.57
62293;BME280;48292;47.724;18.992;2022-07-22T15:55:51;97310.36;;;37.89;18.23
62293;BME280;48292;47.724;18.992;2022-07-22T16:00:52;97310.36;;;37.89;18.23
62293;BME280;48292;47.724;18.992;2022-07-22T16:05:54;97307.39;;;37.54;18.73
62293;BME280;48292;47.724;18.992;2022-07-22T16:10:57;97304.52;;;38.17;18.54
62293;BME280;48292;47.724;18.992;2022-07-22T16:15:59;97304.52;;;38.17;18.54
62293;BME280;48292;47.724;18.992;2022-07-22T16:21:01;97309.64;;;36.48;20.29
62293;BME280;48292;47.724;18.992;2022-07-22T16:26:03;97309.64;;;36.48;20.29
62293;BME280;48292;47.724;18.992;2022-07-22T16:31:05;97309.91;;;37.11;19.91
62293;BME280;48292;47.724;18.992;2022-07-22T16:36:07;97309.91;;;37.11;19.91
62293;BME280;48292;47.724;18.992;2022-07-22T16:41:09;97306.56;;;36.22;21.17
62293;BME280;48292;47.724;18.992;2022-07-22T16:46:11;97306.56;;;36.22;21.17
62293;BME280;48292;47.724;18.992;2022-07-22T16:51:14;97303.38;;;36.08;21.01
62293;BME280;48292;47.724;18.992;2022-07-22T16:56:20;97303.38;;;36.08;21.01
62293;BME280;48292;47.724;18.992;2022-07-22T17:01:22;97309.4;;;35.33;22.66
62293;BME280;48292;47.724;18.992;2022-07-22T17:06:25;97309.4;;;35.33;22.66
62293;BME280;48292;47.724;18.992;2022-07-22T17:11:27;97308.48;;;35.36;23.19
62293;BME280;48292;47.724;18.992;2022-07-22T17:16:28;97308.48;;;35.36;23.19
62293;BME280;48292;47.724;18.992;2022-07-22T17:21:31;97310.23;;;34.49;23.83
62293;BME280;48292;47.724;18.992;2022-07-22T17:26:33;97314.69;;;33.64;25.65
62293;BME280;48292;47.724;18.992;2022-07-22T17:31:34;97314.69;;;33.64;25.65
62293;BME280;48292;47.724;18.992;2022-07-22T17:36:37;97316.5;;;33.11;26.18
62293;BME280;48292;47.724;18.992;2022-07-22T17:41:39;97316.5;;;33.11;26.18
62293;BME280;48292;47.724;18.992;2022-07-22T17:46:41;97317.03;;;32.32;27.82
62293;BME280;48292;47.724;18.992;2022-07-22T17:51:43;97317.03;;;32.32;27.82
62293;BME280;48292;47.724;18.992;2022-07-22T17:56:45;97330.84;;;31.54;29.16
62293;BME280;48292;47.724;18.992;2022-07-22T18:01:47;97330.84;;;31.54;29.16
62293;BME280;48292;47.724;18.992;2022-07-22T18:06:49;97325.58;;;31.32;29.91
62293;BME280;48292;47.724;18.992;2022-07-22T18:11:51;97325.58;;;31.32;29.91
62293;BME280;48292;47.724;18.992;2022-07-22T18:16:53;97334.78;;;30.7;31.58
62293;BME280;48292;47.724;18.992;2022-07-22T18:21:55;97334.78;;;30.7;31.58
62293;BME280;48292;47.724;18.992;2022-07-22T18:26:57;97342.8;;;29.92;32.79
62293;BME280;48292;47.724;18.992;2022-07-22T18:31:59;97348.19;;;29.2;35.31
62293;BME280;48292;47.724;18.992;2022-07-22T18:37:01;97348.19;;;29.2;35.31
62293;BME280;48292;47.724;18.992;2022-07-22T18:42:03;97355.19;;;28.52;35.4
62293;BME280;48292;47.724;18.992;2022-07-22T18:47:05;97355.19;;;28.52;35.4
62293;BME280;48292;47.724;18.992;2022-07-22T18:52:08;97362.75;;;28.1;36.46
62293;BME280;48292;47.724;18.992;2022-07-22T18:57:10;97362.75;;;28.1;36.46
62293;BME280;48292;47.724;18.992;2022-07-22T19:02:11;97368.55;;;27.7;37.01
62293;BME280;48292;47.724;18.992;2022-07-22T19:07:14;97368.55;;;27.7;37.01
62293;BME280;48292;47.724;18.992;2022-07-22T19:12:15;97380.5;;;27.4;37.56
62293;BME280;48292;47.724;18.992;2022-07-22T19:17:18;97380.5;;;27.4;37.56
62293;BME280;48292;47.724;18.992;2022-07-22T19:22:20;97379.92;;;27.51;38.3
62293;BME280;48292;47.724;18.992;2022-07-22T19:27:21;97379.92;;;27.51;38.3
62293;BME280;48292;47.724;18.992;2022-07-22T19:32:23;97386.3;;;26.7;39.78
62293;BME280;48292;47.724;18.992;2022-07-22T19:37:25;97386.3;;;26.7;39.78
62293;BME280;48292;47.724;18.992;2022-07-22T19:42:29;97384.43;;;26.57;40.13
62293;BME280;48292;47.724;18.992;2022-07-22T19:47:31;97391.5;;;26.08;42.8
62293;BME280;48292;47.724;18.992;2022-07-22T19:52:33;97391.5;;;26.08;42.8
62293;BME280;48292;47.724;18.992;2022-07-22T19:57:35;97395.56;;;25.97;41.72
62293;BME280;48292;47.724;18.992;2022-07-22T20:02:37;97395.56;;;25.97;41.72
62293;BME280;48292;47.724;18.992;2022-07-22T20:07:40;97398.72;;;25.5;42.9
62293;BME280;48292;47.724;18.992;2022-07-22T20:12:42;97398.72;;;25.5;42.9
62293;BME280;48292;47.724;18.992;2022-07-22T20:17:44;97399.52;;;25.41;42.55
62293;BME280;48292;47.724;18.992;2022-07-22T20:22:47;97399.52;;;25.41;42.55
62293;BME280;48292;47.724;18.992;2022-07-22T20:27:48;97409.78;;;25.09;44.25
62293;BME280;48292;47.724;18.992;2022-07-22T20:32:50;97409.78;;;25.09;44.25
62293;BME280;48292;47.724;18.992;2022-07-22T20:37:52;97403.75;;;25.02;44.48
62293;BME280;48292;47.724;18.992;2022-07-22T20:42:54;97403.75;;;25.02;44.48
62293;BME280;48292;47.724;18.992;2022-07-22T20:47:56;97398.54;;;24.92;44.33
62293;BME280;48292;47.724;18.992;2022-07-22T20:52:58;97398.54;;;24.92;44.33
62293;BME280;48292;47.724;18.992;2022-07-22T20:58:00;97398.54;;;24.92;44.33
62293;BME280;48292;47.724;18.992;2022-07-22T21:03:02;97398.54;;;24.92;44.33
62293;BME280;48292;47.724;18.992;2022-07-22T21:08:04;97398.54;;;24.92;44.33
62293;BME280;48292;47.724;18.992;2022-07-22T21:13:06;97398.54;;;24.92;44.33
62293;BME280;48292;47.724;18.992;2022-07-22T21:18:08;97398.54;;;24.92;44.33
62293;BME280;48292;47.724;18.992;2022-07-22T21:23:10;97398.54;;;24.92;44.33
62293;BME280;48292;47.724;18.992;2022-07-22T21:28:12;97398.54;;;24.92;44.33
62293;BME280;48292;47.724;18.992;2022-07-22T21:33:15;97398.54;;;24.92;44.33
62293;BME280;48292;47.724;18.992;2022-07-22T21:38:17;97398.54;;;24.92;44.33
62293;BME280;48292;47.724;18.992;2022-07-22T21:43:19;97398.54;;;24.92;44.33
